Luther, Michigan
Current Conditions -  °F | °C
As of 7:55 AM on Thursday 30 Oct 2014 (Local Time) from KCAD Reporting Station
Overcast Overcast  
Wind Chill: 38°   Ceiling: 3500
Heat Index: 38°   Visibility: 10mi
Dew Point: 36°   Wind: 3mph
Humidity: 92%   Direction: 220°SW
Pressure: 30.07"   Gusts: NA
Location:  44.04°N, 85.68°W
Report Text: KCAD 301155Z AUTO 22003KT 10SM SCT017 SCT023 OVC035 03/02 A3007 RMK AO2 T00340022
Loading
Personal Weather Stations






























Interactive Weather Map
Tropical Storm Tracking
New forecast layout! Learn more

10-Day Weather Forecast

Advertisements
Track Severe Weather on mobile